Terminal Aerodrome Forecast
Issued by NWS

Home | Current Version | Previous Version | Text Only | Print | Product List | Glossary On
Versions: 1 2 3 4 5 6 7 8 9 10 11 12 13 14 15 16 17 18 19 20
367
FTUS45 KPIH 201728
TAFSUN
TAF
KSUN 201728Z 2018/2124 31008KT P6SM VCSH SCT025 BKN040 OVC060
     FM202200 19010KT P6SM -SHRA SCT015 BKN025 OVC040
     FM210300 31009KT P6SM -SHRA BKN015 OVC025
     FM210700 31008KT P6SM BKN060 BKN120 OVC200
     FM211800 15008KT P6SM FEW050 BKN120=

USA.gov is the U.S. government's official web portal to all federal, state and local government web resources and services.